Airfield :
LOGIN :

Register | Disclaimer

   EN    FR    IT 

 










Legend :    VFR   Marginal VFR   IFR   Intensive IFR   Very Intensive IFR
Visi :
Ceiling :
>= 8 km
>= 3000ft
5 to 8 km
1000 to 3000 ft
1500m to 5 km
500 to 1000 ft
800 to 1500m
200 to 500 ft
< 800m
< 200 ft
Symbols :   Thunderstorms  Fog  Heavy snow  Heavy precipitations  Wind > 20 kt
SIGMETs :     Misc.  Thunderstorms  Icing  Turbulence  Mountain Waves  Volcanic Ashes







- Airport Elevation : 584 ft
- Download approach charts


LFPV - Villacoublay Vélizy

CURRENT METAR :
  • 202100Z AUTO 19003KT 160V230 4500 BR FEW005 OVC050 01/01 Q1004 TEMPO 0800 FG BKN006

EXPIRED METARs :
  • 202030Z AUTO 15003KT 3500 BR FEW007 SCT013 BKN020 01/01 Q1004 TEMPO 0800 FG BKN006
  • 202000Z AUTO 15003KT 3200 BR BKN015 BKN052 01/01 Q1004 TEMPO 0800 FZFG OVC000
  • 201930Z AUTO 14004KT 3400 BR FEW008 BKN017 BKN025 01/01 Q1004 TEMPO 0800 FZFG OVC000
  • 201900Z AUTO 15003KT 4400 BR SCT018 OVC054 01/01 Q1003 TEMPO 0800 FG OVC000
  • 201830Z AUTO 15004KT 3900 BR BKN013 BKN019 BKN041 01/01 Q1003 TEMPO 0800 FG OVC000

TAF TAF LFPV
Valid from the 20 at 21:00 until the 21 at 21:00 UTC


202000Z 2021/2121 17005KT 2000 BR BKN012
TEMPO 2021/2110 BKN006
PROB30
TEMPO 2021/2103 0800 FG
BECMG 2110/2111 7000 NSW SCT012
BECMG 2112/2114 05003KT SCT025
BECMG 2120/2121 2000 BR OVC003
No reported NOTAMs for that airfield.



MET'MAP, your aeronautical weather chart ! - Copyright ORBIFLY December 2007 - Disclaimer

ORBIFLY MET'MAP TEAM :

Programming & Development : Alexandra Zaïnal
Concept & Development : Baudouin d'Aumeries
Co-Development & Prog : Marc-Olivier Méhu
Technical & hardware support : Manuel Goepfert

Contact : metmap@orbifly.com




SOURCES & CREDITS :

   NOAA